모두
Fisher County Airport (Rotan/Roby, TX) 56F 기상
There is no TAF data available at 56F or any nearby airports.
There is no METAR data available at 56F. Showing METAR data for KSWW (25 mi 남).
최근 SWW METAR 이력(56F에 대한 데이터 없음)
| Date | Time (CDT) | Flight Rules | Wind Dir. | Speed | Type | Height AGL (ft) | Visibility | Temp (°C) | Temp (°F) | Dew Point (°C) | Dew Point (°F) | Rel. Humid. | Pressure | Density Altitude | Remarks |
|---|---|---|---|---|---|---|---|---|---|---|---|---|---|---|---|
| 02-5월 | 09:55 | VFR | 320° | 7 kt | 10 miles | 17° | 62° | 7° | 44° | 51% | 30.27 in Hg | 2,744 ft | |||
| 02-5월 | 09:35 | VFR | 300° | 8 kt | 10 miles | 17° | 62° | 8° | 46° | 55% | 30.27 in Hg | 2,744 ft | |||
| 02-5월 | 09:15 | VFR | 300° | 6 kt | 10 miles | 17° | 62° | 9° | 48° | 61% | 30.26 in Hg | 2,754 ft | |||
| 02-5월 | 08:55 | VFR | 300° | 6 kt | 10 miles | 16° | 60° | 9° | 48° | 63% | 30.26 in Hg | 2,634 ft | |||
| 02-5월 | 08:15 | VFR | 260° | 5 kt | 10 miles | 14° | 57° | 10° | 50° | 76% | 30.25 in Hg | 2,404 ft | |||
| 02-5월 | 07:55 | VFR | 260° | 4 kt | 10 miles | 13° | 55° | 10° | 50° | 82% | 30.24 in Hg | 2,294 ft | |||
| 02-5월 | 07:35 | VFR | 250° | 6 kt | 10 miles | 11° | 51° | 8° | 46° | 84% | 30.22 in Hg | 2,074 ft | |||
| 02-5월 | 07:15 | VFR | 250° | 6 kt | 10 miles | 10° | 50° | 7° | 44° | 83% | 30.21 in Hg | 1,964 ft | |||
| 02-5월 | 06:55 | VFR | 260° | 7 kt | 10 miles | 10° | 50° | 7° | 44° | 82% | 30.21 in Hg | 1,964 ft | |||
| 02-5월 | 06:35 | VFR | 260° | 7 kt | 10 miles | 10° | 50° | 7° | 44° | 82% | 30.21 in Hg | 1,964 ft | |||
| 02-5월 | 06:15 | VFR | 260° | 6 kt | 10 miles | 10° | 50° | 7° | 44° | 81% | 30.21 in Hg | 1,964 ft | |||
| 02-5월 | 05:55 | VFR | 250° | 7 kt | 10 miles | 10° | 50° | 6° | 42° | 80% | 30.20 in Hg | 1,974 ft | |||
| 02-5월 | 05:15 | VFR | 260° | 6 kt | 10 miles | 10° | 50° | 6° | 42° | 79% | 30.19 in Hg | 1,984 ft | |||
| 02-5월 | 04:55 | VFR | 270° | 6 kt | 10 miles | 10° | 50° | 6° | 42° | 79% | 30.19 in Hg | 1,984 ft | |||
| 02-5월 | 04:35 | VFR | 270° | 6 kt | 10 miles | 10° | 50° | 6° | 42° | 78% | 30.18 in Hg | 1,994 ft | |||
| 02-5월 | 04:15 | VFR | 270° | 5 kt | 10 miles | 10° | 50° | 6° | 42° | 76% | 30.18 in Hg | 1,994 ft | |||
| 02-5월 | 03:55 | VFR | 270° | 6 kt | 10 miles | 10° | 50° | 6° | 42° | 77% | 30.18 in Hg | 1,994 ft | |||
| 02-5월 | 03:15 | VFR | 270° | 5 kt | 10 miles | 10° | 50° | 6° | 42° | 76% | 30.18 in Hg | 1,994 ft | |||
| 02-5월 | 03:00 | VFR | 270° | 4 kt | 10 miles | 10° | 50° | 7° | 44° | 78% | 30.18 in Hg | 1,994 ft | |||
| 02-5월 | 02:35 | VFR | 280° | 5 kt | 10 miles | 11° | 51° | 7° | 44° | 78% | 30.19 in Hg | 2,104 ft | |||
| 02-5월 | 02:20 | VFR | 280° | 4 kt | 10 miles | 11° | 51° | 7° | 44° | 76% | 30.19 in Hg | 2,104 ft | |||
| 02-5월 | 01:55 | VFR | 260° | 4 kt | 10 miles | 11° | 51° | 7° | 44° | 75% | 30.19 in Hg | 2,104 ft | |||
| 02-5월 | 01:35 | VFR | 270° | 4 kt | 10 miles | 12° | 53° | 8° | 46° | 79% | 30.19 in Hg | 2,224 ft | |||
| 02-5월 | 01:15 | VFR | 270° | 4 kt | 10 miles | 12° | 53° | 8° | 46° | 75% | 30.19 in Hg | 2,224 ft |
로그인
| 귀하의 브라우저는 지원되지 않습니다.. 브라우저를 업그레이드하세요 |
